sensor_id;sensor_type;location;lat;lon;timestamp;temperature;humidity
16102;DHT22;56411;52.964;10.540;2023-03-15T00:00:20;0.70;99.90
16102;DHT22;56411;52.964;10.540;2023-03-15T00:02:47;0.60;99.90
16102;DHT22;56411;52.964;10.540;2023-03-15T00:05:14;0.60;99.90
16102;DHT22;56411;52.964;10.540;2023-03-15T00:07:41;0.60;99.90
16102;DHT22;56411;52.964;10.540;2023-03-15T00:10:09;0.60;99.90
16102;DHT22;56411;52.964;10.540;2023-03-15T00:12:36;0.60;99.90
16102;DHT22;56411;52.964;10.540;2023-03-15T00:15:05;0.50;99.90
16102;DHT22;56411;52.964;10.540;2023-03-15T00:17:33;0.60;99.90
16102;DHT22;56411;52.964;10.540;2023-03-15T00:20:01;0.50;99.90
16102;DHT22;56411;52.964;10.540;2023-03-15T00:22:29;0.50;99.90
16102;DHT22;56411;52.964;10.540;2023-03-15T00:24:56;0.40;99.90
16102;DHT22;56411;52.964;10.540;2023-03-15T00:27:23;0.40;99.90
16102;DHT22;56411;52.964;10.540;2023-03-15T00:29:50;0.30;99.90
16102;DHT22;56411;52.964;10.540;2023-03-15T00:32:19;0.20;99.90
16102;DHT22;56411;52.964;10.540;2023-03-15T00:34:47;0.20;99.90
16102;DHT22;56411;52.964;10.540;2023-03-15T00:37:15;0.20;99.90
16102;DHT22;56411;52.964;10.540;2023-03-15T00:39:44;0.10;99.90
16102;DHT22;56411;52.964;10.540;2023-03-15T00:42:13;0.10;99.90
16102;DHT22;56411;52.964;10.540;2023-03-15T00:44:41;0.10;99.90
16102;DHT22;56411;52.964;10.540;2023-03-15T00:47:08;0.00;99.90
16102;DHT22;56411;52.964;10.540;2023-03-15T00:49:35;0.00;99.90
16102;DHT22;56411;52.964;10.540;2023-03-15T00:52:05;0.00;99.90
16102;DHT22;56411;52.964;10.540;2023-03-15T00:54:33;0.00;99.90
16102;DHT22;56411;52.964;10.540;2023-03-15T00:57:00;0.00;99.90
16102;DHT22;56411;52.964;10.540;2023-03-15T00:59:29;0.00;99.90
16102;DHT22;56411;52.964;10.540;2023-03-15T01:01:59;-0.10;99.90
16102;DHT22;56411;52.964;10.540;2023-03-15T01:04:26;0.00;99.90
16102;DHT22;56411;52.964;10.540;2023-03-15T01:06:54;-0.10;99.90
16102;DHT22;56411;52.964;10.540;2023-03-15T01:09:22;-0.10;99.90
16102;DHT22;56411;52.964;10.540;2023-03-15T01:11:50;-0.10;99.90
16102;DHT22;56411;52.964;10.540;2023-03-15T01:14:17;-0.10;99.90
16102;DHT22;56411;52.964;10.540;2023-03-15T01:16:45;-0.20;99.90
16102;DHT22;56411;52.964;10.540;2023-03-15T01:19:13;-0.20;99.90
16102;DHT22;56411;52.964;10.540;2023-03-15T01:21:40;-0.10;99.90
16102;DHT22;56411;52.964;10.540;2023-03-15T01:24:11;0.00;99.90
16102;DHT22;56411;52.964;10.540;2023-03-15T01:26:40;0.10;99.90
16102;DHT22;56411;52.964;10.540;2023-03-15T01:29:07;0.20;99.90
16102;DHT22;56411;52.964;10.540;2023-03-15T01:31:35;0.20;99.90
16102;DHT22;56411;52.964;10.540;2023-03-15T01:34:02;0.20;99.90
16102;DHT22;56411;52.964;10.540;2023-03-15T01:36:30;0.20;99.90
16102;DHT22;56411;52.964;10.540;2023-03-15T01:38:57;0.10;99.90
16102;DHT22;56411;52.964;10.540;2023-03-15T01:41:24;0.00;99.90
16102;DHT22;56411;52.964;10.540;2023-03-15T01:43:53;0.00;99.90
16102;DHT22;56411;52.964;10.540;2023-03-15T01:46:23;0.00;99.90
16102;DHT22;56411;52.964;10.540;2023-03-15T01:48:54;0.00;99.90
16102;DHT22;56411;52.964;10.540;2023-03-15T01:51:25;0.00;99.90
16102;DHT22;56411;52.964;10.540;2023-03-15T01:53:58;0.00;99.90
16102;DHT22;56411;52.964;10.540;2023-03-15T01:56:27;0.00;99.90
16102;DHT22;56411;52.964;10.540;2023-03-15T01:58:57;0.00;99.90
16102;DHT22;56411;52.964;10.540;2023-03-15T02:01:26;0.10;99.90
16102;DHT22;56411;52.964;10.540;2023-03-15T02:03:59;0.10;99.90
16102;DHT22;56411;52.964;10.540;2023-03-15T02:06:28;0.10;99.90
16102;DHT22;56411;52.964;10.540;2023-03-15T02:09:02;0.20;99.90
16102;DHT22;56411;52.964;10.540;2023-03-15T02:11:30;0.20;99.90
16102;DHT22;56411;52.964;10.540;2023-03-15T02:14:01;0.20;99.90
16102;DHT22;56411;52.964;10.540;2023-03-15T02:16:29;0.10;99.90
16102;DHT22;56411;52.964;10.540;2023-03-15T02:18:57;0.10;99.90
16102;DHT22;56411;52.964;10.540;2023-03-15T02:21:34;0.00;99.90
16102;DHT22;56411;52.964;10.540;2023-03-15T02:24:10;0.00;99.90
16102;DHT22;56411;52.964;10.540;2023-03-15T02:26:43;-0.10;99.90
16102;DHT22;56411;52.964;10.540;2023-03-15T02:29:12;-0.10;99.90
16102;DHT22;56411;52.964;10.540;2023-03-15T02:31:40;-0.20;99.90
16102;DHT22;56411;52.964;10.540;2023-03-15T02:34:07;-0.20;99.90
16102;DHT22;56411;52.964;10.540;2023-03-15T02:36:35;-0.20;99.90
16102;DHT22;56411;52.964;10.540;2023-03-15T02:39:13;-0.30;99.90
16102;DHT22;56411;52.964;10.540;2023-03-15T02:41:44;-0.20;99.90
16102;DHT22;56411;52.964;10.540;2023-03-15T02:44:16;-0.20;99.90
16102;DHT22;56411;52.964;10.540;2023-03-15T02:46:45;-0.10;99.90
16102;DHT22;56411;52.964;10.540;2023-03-15T02:49:14;-0.10;99.90
16102;DHT22;56411;52.964;10.540;2023-03-15T02:51:42;0.00;99.90
16102;DHT22;56411;52.964;10.540;2023-03-15T02:54:10;0.10;99.90
16102;DHT22;56411;52.964;10.540;2023-03-15T02:56:37;0.10;99.90
16102;DHT22;56411;52.964;10.540;2023-03-15T02:59:04;0.20;99.90
16102;DHT22;56411;52.964;10.540;2023-03-15T03:01:32;0.30;99.90
16102;DHT22;56411;52.964;10.540;2023-03-15T03:04:02;0.40;99.90
16102;DHT22;56411;52.964;10.540;2023-03-15T03:06:29;0.40;99.90
16102;DHT22;56411;52.964;10.540;2023-03-15T03:08:57;0.40;99.90
16102;DHT22;56411;52.964;10.540;2023-03-15T03:11:24;0.50;99.90
16102;DHT22;56411;52.964;10.540;2023-03-15T03:13:51;0.50;99.90
16102;DHT22;56411;52.964;10.540;2023-03-15T03:16:18;0.50;99.90
16102;DHT22;56411;52.964;10.540;2023-03-15T03:18:49;0.50;99.90
16102;DHT22;56411;52.964;10.540;2023-03-15T03:21:16;0.50;99.90
16102;DHT22;56411;52.964;10.540;2023-03-15T03:23:43;0.50;99.90
16102;DHT22;56411;52.964;10.540;2023-03-15T03:26:13;0.50;99.90
16102;DHT22;56411;52.964;10.540;2023-03-15T03:28:42;0.50;99.90
16102;DHT22;56411;52.964;10.540;2023-03-15T03:31:15;0.60;99.90
16102;DHT22;56411;52.964;10.540;2023-03-15T03:33:45;0.70;99.90
16102;DHT22;56411;52.964;10.540;2023-03-15T03:36:14;0.70;99.90
16102;DHT22;56411;52.964;10.540;2023-03-15T03:38:44;0.80;99.90
16102;DHT22;56411;52.964;10.540;2023-03-15T03:41:13;0.90;99.90
16102;DHT22;56411;52.964;10.540;2023-03-15T03:43:40;0.90;99.90
16102;DHT22;56411;52.964;10.540;2023-03-15T03:46:07;0.90;99.90
16102;DHT22;56411;52.964;10.540;2023-03-15T03:48:34;0.90;99.90
16102;DHT22;56411;52.964;10.540;2023-03-15T03:51:04;1.00;99.90
16102;DHT22;56411;52.964;10.540;2023-03-15T03:53:33;1.00;99.90
16102;DHT22;56411;52.964;10.540;2023-03-15T03:56:02;1.00;99.90
16102;DHT22;56411;52.964;10.540;2023-03-15T03:58:30;1.10;99.90
16102;DHT22;56411;52.964;10.540;2023-03-15T04:00:57;1.10;99.90
16102;DHT22;56411;52.964;10.540;2023-03-15T04:03:24;1.10;99.90
16102;DHT22;56411;52.964;10.540;2023-03-15T04:05:53;1.10;99.90
16102;DHT22;56411;52.964;10.540;2023-03-15T04:08:21;1.10;99.90
16102;DHT22;56411;52.964;10.540;2023-03-15T04:10:51;1.10;99.90
16102;DHT22;56411;52.964;10.540;2023-03-15T04:13:19;1.10;99.90
16102;DHT22;56411;52.964;10.540;2023-03-15T04:15:46;1.10;99.90
16102;DHT22;56411;52.964;10.540;2023-03-15T04:18:14;1.10;99.90
16102;DHT22;56411;52.964;10.540;2023-03-15T04:20:42;1.10;99.90
16102;DHT22;56411;52.964;10.540;2023-03-15T04:23:12;1.10;99.90
16102;DHT22;56411;52.964;10.540;2023-03-15T04:25:39;1.10;99.90
16102;DHT22;56411;52.964;10.540;2023-03-15T04:28:08;1.10;99.90
16102;DHT22;56411;52.964;10.540;2023-03-15T04:30:37;1.10;99.90
16102;DHT22;56411;52.964;10.540;2023-03-15T04:33:04;1.10;99.90
16102;DHT22;56411;52.964;10.540;2023-03-15T04:35:33;1.10;99.90
16102;DHT22;56411;52.964;10.540;2023-03-15T04:38:01;1.10;99.90
16102;DHT22;56411;52.964;10.540;2023-03-15T04:40:30;1.00;99.90
16102;DHT22;56411;52.964;10.540;2023-03-15T04:43:10;1.00;99.90
16102;DHT22;56411;52.964;10.540;2023-03-15T04:45:39;1.00;99.90
16102;DHT22;56411;52.964;10.540;2023-03-15T04:48:06;1.00;99.90
16102;DHT22;56411;52.964;10.540;2023-03-15T04:50:34;1.00;99.90
16102;DHT22;56411;52.964;10.540;2023-03-15T04:53:01;1.00;99.90
16102;DHT22;56411;52.964;10.540;2023-03-15T04:55:28;0.90;99.90
16102;DHT22;56411;52.964;10.540;2023-03-15T04:57:55;0.90;99.90
16102;DHT22;56411;52.964;10.540;2023-03-15T05:00:23;0.80;99.90
16102;DHT22;56411;52.964;10.540;2023-03-15T05:02:52;0.70;99.90
16102;DHT22;56411;52.964;10.540;2023-03-15T05:05:21;0.60;99.90
16102;DHT22;56411;52.964;10.540;2023-03-15T05:07:48;0.60;99.90
16102;DHT22;56411;52.964;10.540;2023-03-15T05:10:15;0.50;99.90
16102;DHT22;56411;52.964;10.540;2023-03-15T05:12:43;0.50;99.90
16102;DHT22;56411;52.964;10.540;2023-03-15T05:15:11;0.40;99.90
16102;DHT22;56411;52.964;10.540;2023-03-15T05:17:38;0.40;99.90
16102;DHT22;56411;52.964;10.540;2023-03-15T05:20:08;0.40;99.90
16102;DHT22;56411;52.964;10.540;2023-03-15T05:22:37;0.40;99.90
16102;DHT22;56411;52.964;10.540;2023-03-15T05:25:06;0.40;99.90
16102;DHT22;56411;52.964;10.540;2023-03-15T05:27:33;0.40;99.90
16102;DHT22;56411;52.964;10.540;2023-03-15T05:30:02;0.40;99.90
16102;DHT22;56411;52.964;10.540;2023-03-15T05:32:34;0.50;99.90
16102;DHT22;56411;52.964;10.540;2023-03-15T05:35:07;0.40;99.90
16102;DHT22;56411;52.964;10.540;2023-03-15T05:37:44;0.50;99.90
16102;DHT22;56411;52.964;10.540;2023-03-15T05:40:14;0.50;99.90
16102;DHT22;56411;52.964;10.540;2023-03-15T05:42:43;0.60;99.90
16102;DHT22;56411;52.964;10.540;2023-03-15T05:45:11;0.60;99.90
16102;DHT22;56411;52.964;10.540;2023-03-15T05:47:44;0.70;99.90
16102;DHT22;56411;52.964;10.540;2023-03-15T05:50:14;0.70;99.90
16102;DHT22;56411;52.964;10.540;2023-03-15T05:52:42;0.70;99.90
16102;DHT22;56411;52.964;10.540;2023-03-15T05:55:10;0.70;99.90
16102;DHT22;56411;52.964;10.540;2023-03-15T05:57:38;0.70;99.90
16102;DHT22;56411;52.964;10.540;2023-03-15T06:00:07;0.70;99.90
16102;DHT22;56411;52.964;10.540;2023-03-15T06:02:34;0.70;99.90
16102;DHT22;56411;52.964;10.540;2023-03-15T06:05:05;0.70;99.90
16102;DHT22;56411;52.964;10.540;2023-03-15T06:07:34;0.60;99.90
16102;DHT22;56411;52.964;10.540;2023-03-15T06:10:01;0.60;99.90
16102;DHT22;56411;52.964;10.540;2023-03-15T06:12:28;0.60;99.90
16102;DHT22;56411;52.964;10.540;2023-03-15T06:14:56;0.70;99.90
16102;DHT22;56411;52.964;10.540;2023-03-15T06:17:23;0.70;99.90
16102;DHT22;56411;52.964;10.540;2023-03-15T06:19:50;0.80;99.90
16102;DHT22;56411;52.964;10.540;2023-03-15T06:22:18;0.90;99.90
16102;DHT22;56411;52.964;10.540;2023-03-15T06:24:47;0.90;99.90
16102;DHT22;56411;52.964;10.540;2023-03-15T06:27:14;0.90;99.90
16102;DHT22;56411;52.964;10.540;2023-03-15T06:29:46;0.90;99.90
16102;DHT22;56411;52.964;10.540;2023-03-15T06:32:13;0.90;99.90
16102;DHT22;56411;52.964;10.540;2023-03-15T06:34:40;0.90;99.90
16102;DHT22;56411;52.964;10.540;2023-03-15T06:37:07;0.90;99.90
16102;DHT22;56411;52.964;10.540;2023-03-15T06:39:35;0.90;99.90
16102;DHT22;56411;52.964;10.540;2023-03-15T06:42:04;1.00;99.90
16102;DHT22;56411;52.964;10.540;2023-03-15T06:44:33;1.10;99.90
16102;DHT22;56411;52.964;10.540;2023-03-15T06:47:00;1.20;99.90
16102;DHT22;56411;52.964;10.540;2023-03-15T06:49:28;1.20;99.90
16102;DHT22;56411;52.964;10.540;2023-03-15T06:51:55;1.20;99.90
16102;DHT22;56411;52.964;10.540;2023-03-15T06:54:22;1.30;99.90
16102;DHT22;56411;52.964;10.540;2023-03-15T06:56:50;1.30;99.90
16102;DHT22;56411;52.964;10.540;2023-03-15T06:59:19;1.30;99.90
16102;DHT22;56411;52.964;10.540;2023-03-15T07:01:46;1.40;99.90
16102;DHT22;56411;52.964;10.540;2023-03-15T07:04:14;1.50;99.90
16102;DHT22;56411;52.964;10.540;2023-03-15T07:06:42;1.50;99.90
16102;DHT22;56411;52.964;10.540;2023-03-15T07:09:09;1.50;99.90
16102;DHT22;56411;52.964;10.540;2023-03-15T07:11:37;1.60;99.90
16102;DHT22;56411;52.964;10.540;2023-03-15T07:14:04;1.60;99.90
16102;DHT22;56411;52.964;10.540;2023-03-15T07:16:33;1.60;99.90
16102;DHT22;56411;52.964;10.540;2023-03-15T07:19:00;1.60;99.90
16102;DHT22;56411;52.964;10.540;2023-03-15T07:21:27;1.60;99.90
16102;DHT22;56411;52.964;10.540;2023-03-15T07:23:54;1.50;99.90
16102;DHT22;56411;52.964;10.540;2023-03-15T07:26:21;1.60;99.90
16102;DHT22;56411;52.964;10.540;2023-03-15T07:28:49;1.60;99.90
16102;DHT22;56411;52.964;10.540;2023-03-15T07:31:16;1.60;99.90
16102;DHT22;56411;52.964;10.540;2023-03-15T07:33:45;1.70;99.90
16102;DHT22;56411;52.964;10.540;2023-03-15T07:36:12;1.90;99.90
16102;DHT22;56411;52.964;10.540;2023-03-15T07:38:39;1.90;99.90
16102;DHT22;56411;52.964;10.540;2023-03-15T07:41:07;2.00;99.90
16102;DHT22;56411;52.964;10.540;2023-03-15T07:43:34;2.00;99.90
16102;DHT22;56411;52.964;10.540;2023-03-15T07:46:02;2.10;99.90
16102;DHT22;56411;52.964;10.540;2023-03-15T07:48:34;2.10;99.90
16102;DHT22;56411;52.964;10.540;2023-03-15T07:51:03;2.20;99.90
16102;DHT22;56411;52.964;10.540;2023-03-15T07:53:31;2.20;99.90
16102;DHT22;56411;52.964;10.540;2023-03-15T07:55:58;2.20;99.90
16102;DHT22;56411;52.964;10.540;2023-03-15T07:58:25;2.20;99.90
16102;DHT22;56411;52.964;10.540;2023-03-15T08:00:54;2.20;99.90
16102;DHT22;56411;52.964;10.540;2023-03-15T08:03:21;2.30;99.90
16102;DHT22;56411;52.964;10.540;2023-03-15T08:05:49;2.40;99.90
16102;DHT22;56411;52.964;10.540;2023-03-15T08:08:18;2.40;99.90
16102;DHT22;56411;52.964;10.540;2023-03-15T08:10:48;2.40;99.90
16102;DHT22;56411;52.964;10.540;2023-03-15T08:13:17;2.50;99.90
16102;DHT22;56411;52.964;10.540;2023-03-15T08:15:45;2.60;99.90
16102;DHT22;56411;52.964;10.540;2023-03-15T08:18:13;2.50;99.90
16102;DHT22;56411;52.964;10.540;2023-03-15T08:20:40;2.50;99.90
16102;DHT22;56411;52.964;10.540;2023-03-15T08:23:07;2.60;99.90
16102;DHT22;56411;52.964;10.540;2023-03-15T08:25:42;2.70;99.90
16102;DHT22;56411;52.964;10.540;2023-03-15T08:28:10;2.80;99.90
16102;DHT22;56411;52.964;10.540;2023-03-15T08:30:37;2.90;99.90
16102;DHT22;56411;52.964;10.540;2023-03-15T08:33:05;2.90;99.90
16102;DHT22;56411;52.964;10.540;2023-03-15T08:35:33;2.90;99.90
16102;DHT22;56411;52.964;10.540;2023-03-15T08:38:03;3.00;99.90
16102;DHT22;56411;52.964;10.540;2023-03-15T08:40:30;3.20;99.90
16102;DHT22;56411;52.964;10.540;2023-03-15T08:43:00;3.30;99.90
16102;DHT22;56411;52.964;10.540;2023-03-15T08:45:27;3.40;99.90
16102;DHT22;56411;52.964;10.540;2023-03-15T08:47:55;3.50;99.90
16102;DHT22;56411;52.964;10.540;2023-03-15T08:50:26;3.70;99.90
16102;DHT22;56411;52.964;10.540;2023-03-15T08:52:54;3.80;99.90
16102;DHT22;56411;52.964;10.540;2023-03-15T08:55:22;3.80;99.90
16102;DHT22;56411;52.964;10.540;2023-03-15T08:57:49;3.90;99.90
16102;DHT22;56411;52.964;10.540;2023-03-15T09:00:19;4.00;99.90
16102;DHT22;56411;52.964;10.540;2023-03-15T09:02:47;4.00;99.90
16102;DHT22;56411;52.964;10.540;2023-03-15T09:05:17;4.00;99.90
16102;DHT22;56411;52.964;10.540;2023-03-15T09:07:44;4.20;99.90
16102;DHT22;56411;52.964;10.540;2023-03-15T09:10:13;4.40;99.90
16102;DHT22;56411;52.964;10.540;2023-03-15T09:12:41;4.40;99.90
16102;DHT22;56411;52.964;10.540;2023-03-15T09:15:09;4.70;99.90
16102;DHT22;56411;52.964;10.540;2023-03-15T09:17:40;5.10;99.90
16102;DHT22;56411;52.964;10.540;2023-03-15T09:20:10;5.20;99.90
16102;DHT22;56411;52.964;10.540;2023-03-15T09:22:40;5.00;99.90
16102;DHT22;56411;52.964;10.540;2023-03-15T09:25:09;4.20;99.90
16102;DHT22;56411;52.964;10.540;2023-03-15T09:27:36;3.50;99.90
16102;DHT22;56411;52.964;10.540;2023-03-15T09:30:05;3.20;99.90
16102;DHT22;56411;52.964;10.540;2023-03-15T09:32:32;3.00;99.90
16102;DHT22;56411;52.964;10.540;2023-03-15T09:35:03;2.90;99.90
16102;DHT22;56411;52.964;10.540;2023-03-15T09:37:30;2.90;99.90
16102;DHT22;56411;52.964;10.540;2023-03-15T09:39:57;3.00;99.90
16102;DHT22;56411;52.964;10.540;2023-03-15T09:42:29;3.00;99.90
16102;DHT22;56411;52.964;10.540;2023-03-15T09:45:04;3.20;99.90
16102;DHT22;56411;52.964;10.540;2023-03-15T09:47:39;3.40;99.90
16102;DHT22;56411;52.964;10.540;2023-03-15T09:50:16;3.60;99.90
16102;DHT22;56411;52.964;10.540;2023-03-15T09:52:47;3.70;99.90
16102;DHT22;56411;52.964;10.540;2023-03-15T09:55:19;3.90;99.90
16102;DHT22;56411;52.964;10.540;2023-03-15T09:57:50;4.00;99.90
16102;DHT22;56411;52.964;10.540;2023-03-15T10:00:20;4.20;99.90
16102;DHT22;56411;52.964;10.540;2023-03-15T10:02:55;4.30;99.90
16102;DHT22;56411;52.964;10.540;2023-03-15T10:05:34;4.50;99.90
16102;DHT22;56411;52.964;10.540;2023-03-15T10:08:11;4.60;99.90
16102;DHT22;56411;52.964;10.540;2023-03-15T10:10:43;4.70;99.90
16102;DHT22;56411;52.964;10.540;2023-03-15T10:13:32;4.60;99.90
16102;DHT22;56411;52.964;10.540;2023-03-15T10:16:11;4.40;99.90
16102;DHT22;56411;52.964;10.540;2023-03-15T10:19:01;4.30;99.90
16102;DHT22;56411;52.964;10.540;2023-03-15T10:21:42;4.10;99.90
16102;DHT22;56411;52.964;10.540;2023-03-15T10:24:17;4.10;99.90
16102;DHT22;56411;52.964;10.540;2023-03-15T10:26:46;4.10;99.90
16102;DHT22;56411;52.964;10.540;2023-03-15T10:29:18;4.20;99.90
16102;DHT22;56411;52.964;10.540;2023-03-15T10:31:46;4.10;99.90
16102;DHT22;56411;52.964;10.540;2023-03-15T10:34:15;4.10;99.90
16102;DHT22;56411;52.964;10.540;2023-03-15T10:36:48;4.10;99.90
16102;DHT22;56411;52.964;10.540;2023-03-15T10:39:18;4.20;99.90
16102;DHT22;56411;52.964;10.540;2023-03-15T10:41:48;4.60;99.90
16102;DHT22;56411;52.964;10.540;2023-03-15T10:44:18;5.20;99.90
16102;DHT22;56411;52.964;10.540;2023-03-15T10:46:59;5.70;99.90
16102;DHT22;56411;52.964;10.540;2023-03-15T10:49:39;6.20;99.90
16102;DHT22;56411;52.964;10.540;2023-03-15T10:52:25;6.70;99.90
16102;DHT22;56411;52.964;10.540;2023-03-15T10:54:53;6.60;99.90
16102;DHT22;56411;52.964;10.540;2023-03-15T10:57:23;6.30;99.90
16102;DHT22;56411;52.964;10.540;2023-03-15T10:59:56;6.10;99.90
16102;DHT22;56411;52.964;10.540;2023-03-15T11:02:25;6.20;99.90
16102;DHT22;56411;52.964;10.540;2023-03-15T11:05:00;6.00;99.90
16102;DHT22;56411;52.964;10.540;2023-03-15T11:07:33;6.00;99.90
16102;DHT22;56411;52.964;10.540;2023-03-15T11:10:03;6.00;99.90
16102;DHT22;56411;52.964;10.540;2023-03-15T11:12:32;6.20;99.90
16102;DHT22;56411;52.964;10.540;2023-03-15T11:15:02;6.30;99.90
16102;DHT22;56411;52.964;10.540;2023-03-15T11:17:32;6.10;99.90
16102;DHT22;56411;52.964;10.540;2023-03-15T11:20:05;6.40;99.90
16102;DHT22;56411;52.964;10.540;2023-03-15T11:22:39;7.10;99.90
16102;DHT22;56411;52.964;10.540;2023-03-15T11:25:11;7.60;99.90
16102;DHT22;56411;52.964;10.540;2023-03-15T11:27:39;8.20;99.90
16102;DHT22;56411;52.964;10.540;2023-03-15T11:30:13;8.50;99.90
16102;DHT22;56411;52.964;10.540;2023-03-15T11:32:45;8.80;99.90
16102;DHT22;56411;52.964;10.540;2023-03-15T11:35:14;8.60;99.90
16102;DHT22;56411;52.964;10.540;2023-03-15T11:37:47;9.00;99.90
16102;DHT22;56411;52.964;10.540;2023-03-15T11:40:19;9.00;99.90
16102;DHT22;56411;52.964;10.540;2023-03-15T11:42:52;9.00;99.90
16102;DHT22;56411;52.964;10.540;2023-03-15T11:45:28;9.50;99.90
16102;DHT22;56411;52.964;10.540;2023-03-15T11:48:03;9.40;99.90
16102;DHT22;56411;52.964;10.540;2023-03-15T11:50:33;9.00;99.90
16102;DHT22;56411;52.964;10.540;2023-03-15T11:53:05;9.00;99.90
16102;DHT22;56411;52.964;10.540;2023-03-15T11:55:34;8.70;99.90
16102;DHT22;56411;52.964;10.540;2023-03-15T11:58:27;7.80;99.90
16102;DHT22;56411;52.964;10.540;2023-03-15T12:01:03;5.90;99.90
16102;DHT22;56411;52.964;10.540;2023-03-15T12:03:39;4.50;99.90
16102;DHT22;56411;52.964;10.540;2023-03-15T12:06:35;3.90;99.90
16102;DHT22;56411;52.964;10.540;2023-03-15T12:09:48;3.40;99.90
16102;DHT22;56411;52.964;10.540;2023-03-15T12:12:46;3.10;99.90
16102;DHT22;56411;52.964;10.540;2023-03-15T12:15:47;3.00;99.90
16102;DHT22;56411;52.964;10.540;2023-03-15T12:18:19;3.00;99.90
16102;DHT22;56411;52.964;10.540;2023-03-15T12:21:09;3.10;99.90
16102;DHT22;56411;52.964;10.540;2023-03-15T12:23:44;3.20;99.90
16102;DHT22;56411;52.964;10.540;2023-03-15T12:26:29;3.30;99.90
16102;DHT22;56411;52.964;10.540;2023-03-15T12:29:12;3.30;99.90
16102;DHT22;56411;52.964;10.540;2023-03-15T12:31:53;3.20;99.90
16102;DHT22;56411;52.964;10.540;2023-03-15T12:34:41;3.30;99.90
16102;DHT22;56411;52.964;10.540;2023-03-15T12:37:15;4.00;99.90
16102;DHT22;56411;52.964;10.540;2023-03-15T12:39:48;4.60;99.90
16102;DHT22;56411;52.964;10.540;2023-03-15T12:45:35;6.00;99.90
16102;DHT22;56411;52.964;10.540;2023-03-15T12:48:23;6.00;99.90
16102;DHT22;56411;52.964;10.540;2023-03-15T12:50:53;6.70;99.90
16102;DHT22;56411;52.964;10.540;2023-03-15T12:53:33;7.10;99.90
16102;DHT22;56411;52.964;10.540;2023-03-15T12:56:27;7.80;99.90
16102;DHT22;56411;52.964;10.540;2023-03-15T12:59:05;7.80;99.90
16102;DHT22;56411;52.964;10.540;2023-03-15T13:01:39;7.90;99.90
16102;DHT22;56411;52.964;10.540;2023-03-15T13:04:09;8.20;99.90
16102;DHT22;56411;52.964;10.540;2023-03-15T13:07:15;8.50;99.90
16102;DHT22;56411;52.964;10.540;2023-03-15T13:09:59;8.40;99.90
16102;DHT22;56411;52.964;10.540;2023-03-15T13:12:37;9.00;99.90
16102;DHT22;56411;52.964;10.540;2023-03-15T13:15:10;7.90;99.90
16102;DHT22;56411;52.964;10.540;2023-03-15T13:17:47;7.50;99.90
16102;DHT22;56411;52.964;10.540;2023-03-15T13:20:27;7.30;99.90
16102;DHT22;56411;52.964;10.540;2023-03-15T13:23:08;6.80;99.90
16102;DHT22;56411;52.964;10.540;2023-03-15T13:25:45;6.50;99.90
16102;DHT22;56411;52.964;10.540;2023-03-15T13:28:22;6.00;99.90
16102;DHT22;56411;52.964;10.540;2023-03-15T13:30:53;5.80;99.90
16102;DHT22;56411;52.964;10.540;2023-03-15T13:33:25;5.70;99.90
16102;DHT22;56411;52.964;10.540;2023-03-15T13:35:55;5.50;99.90
16102;DHT22;56411;52.964;10.540;2023-03-15T13:38:28;5.50;99.90
16102;DHT22;56411;52.964;10.540;2023-03-15T13:40:59;5.40;99.90
16102;DHT22;56411;52.964;10.540;2023-03-15T13:43:30;5.30;99.90
16102;DHT22;56411;52.964;10.540;2023-03-15T13:45:59;5.60;99.90
16102;DHT22;56411;52.964;10.540;2023-03-15T13:48:45;5.70;99.90
16102;DHT22;56411;52.964;10.540;2023-03-15T13:51:18;5.90;99.90
16102;DHT22;56411;52.964;10.540;2023-03-15T13:53:52;5.80;99.90
16102;DHT22;56411;52.964;10.540;2023-03-15T13:56:31;5.80;99.90
16102;DHT22;56411;52.964;10.540;2023-03-15T13:59:00;5.70;99.90
16102;DHT22;56411;52.964;10.540;2023-03-15T14:01:31;5.80;99.90
16102;DHT22;56411;52.964;10.540;2023-03-15T14:04:14;6.50;99.90
16102;DHT22;56411;52.964;10.540;2023-03-15T14:06:46;7.50;99.90
16102;DHT22;56411;52.964;10.540;2023-03-15T14:09:19;8.00;99.90
16102;DHT22;56411;52.964;10.540;2023-03-15T14:12:15;8.20;99.90
16102;DHT22;56411;52.964;10.540;2023-03-15T14:14:48;8.40;99.90
16102;DHT22;56411;52.964;10.540;2023-03-15T14:17:23;8.80;99.90
16102;DHT22;56411;52.964;10.540;2023-03-15T14:20:04;8.80;99.90
16102;DHT22;56411;52.964;10.540;2023-03-15T14:22:33;8.40;99.90
16102;DHT22;56411;52.964;10.540;2023-03-15T14:25:03;8.50;99.90
16102;DHT22;56411;52.964;10.540;2023-03-15T14:27:32;8.60;99.90
16102;DHT22;56411;52.964;10.540;2023-03-15T14:30:02;9.40;99.90
16102;DHT22;56411;52.964;10.540;2023-03-15T14:32:50;10.10;99.90
16102;DHT22;56411;52.964;10.540;2023-03-15T14:35:28;9.80;99.90
16102;DHT22;56411;52.964;10.540;2023-03-15T14:38:02;8.70;99.90
16102;DHT22;56411;52.964;10.540;2023-03-15T14:40:32;9.00;99.90
16102;DHT22;56411;52.964;10.540;2023-03-15T14:43:05;9.80;99.90
16102;DHT22;56411;52.964;10.540;2023-03-15T14:45:37;10.60;99.90
16102;DHT22;56411;52.964;10.540;2023-03-15T14:48:09;10.70;99.90
16102;DHT22;56411;52.964;10.540;2023-03-15T14:50:43;10.80;99.90
16102;DHT22;56411;52.964;10.540;2023-03-15T14:53:23;10.10;99.90
16102;DHT22;56411;52.964;10.540;2023-03-15T14:58:48;9.20;99.90
16102;DHT22;56411;52.964;10.540;2023-03-15T15:01:20;8.70;99.90
16102;DHT22;56411;52.964;10.540;2023-03-15T15:03:52;8.30;99.90
16102;DHT22;56411;52.964;10.540;2023-03-15T15:06:25;8.50;99.90
16102;DHT22;56411;52.964;10.540;2023-03-15T15:09:04;9.30;99.90
16102;DHT22;56411;52.964;10.540;2023-03-15T15:11:32;9.50;99.90
16102;DHT22;56411;52.964;10.540;2023-03-15T15:14:07;9.70;99.90
16102;DHT22;56411;52.964;10.540;2023-03-15T15:16:37;9.30;99.90
16102;DHT22;56411;52.964;10.540;2023-03-15T15:19:05;8.30;99.90
16102;DHT22;56411;52.964;10.540;2023-03-15T15:21:36;7.60;99.90
16102;DHT22;56411;52.964;10.540;2023-03-15T15:24:13;7.30;99.90
16102;DHT22;56411;52.964;10.540;2023-03-15T15:26:44;7.60;99.90
16102;DHT22;56411;52.964;10.540;2023-03-15T15:29:15;8.30;99.90
16102;DHT22;56411;52.964;10.540;2023-03-15T15:31:44;8.30;99.90
16102;DHT22;56411;52.964;10.540;2023-03-15T15:34:12;8.10;99.90
16102;DHT22;56411;52.964;10.540;2023-03-15T15:36:43;7.80;99.90
16102;DHT22;56411;52.964;10.540;2023-03-15T15:39:18;7.30;99.90
16102;DHT22;56411;52.964;10.540;2023-03-15T15:41:48;6.90;99.90
16102;DHT22;56411;52.964;10.540;2023-03-15T15:44:30;6.90;99.90
16102;DHT22;56411;52.964;10.540;2023-03-15T15:46:58;6.60;99.90
16102;DHT22;56411;52.964;10.540;2023-03-15T15:49:26;6.50;99.90
16102;DHT22;56411;52.964;10.540;2023-03-15T15:51:55;6.50;99.90
16102;DHT22;56411;52.964;10.540;2023-03-15T15:54:25;6.30;99.90
16102;DHT22;56411;52.964;10.540;2023-03-15T15:56:56;6.20;99.90
16102;DHT22;56411;52.964;10.540;2023-03-15T15:59:24;6.20;99.90